Ames, Nebraska
Current Conditions -  °F | °C
As of 6:55 PM on Saturday 25 Oct 2014 (Local Time) from KFET Reporting Station
Clear Clear  
Wind Chill: 67°   Ceiling: Unl
Heat Index: 67°   Visibility: 10mi
Dew Point: 38°   Wind: 3mph
Humidity: 36%   Direction: 60°ENE
Pressure: 30.04"   Gusts: NA
Location:  41.45°N, 96.63°W
Report Text: KFET 252355Z AUTO 06003KT 10SM CLR 19/04 A3004 RMK AO2 T01920036 10229 20192
Loading
Personal Weather Stations






























Interactive Weather Map
Tropical Storm Tracking
New forecast layout! Learn more

10-Day Weather Forecast

Advertisements
Track Severe Weather on mobile